Kassel-Calden Airport

Airport
ICAO code: 
EDVK
Summary
ICAO Region: 
EUR
Territory: 
Location: 
Kassel, Germany,
Coordinates: 
Aerial View: 
51° 25' 2.183" N, 9° 23' 5.881" E
Airport WX: 
Fog
Metar
Observation
EDVK 071250Z 22006KT 9999 FEW030 BKN049 04/02 Q1009
Station
Kassel / Calden
Date/Time
2021-12-07 12:50:00
Wind direction
220°
Wind speed
06 kts
Lowest cloud amount
few clouds
Temperature
4°C
Dew point
2°C
Humidity
86%
QNH
1009 hPa
Weather condition
n/a

Description

Located 16.7 Km northwest of the German city of Kassel, the airport is home to a flying school.

Climatology

Temperate Marine climate/Oceanic climate (Köppen climate classification Cfb). Moderately cool summer and comparatively warm winter with a temperature range of only 14°C. Prevailing south-westerly winds from the Atlantic Ocean.

Runways

Designator Length Width Surface Rops
04L/22R 700 30 GRS No/No
4/22 1500 30 ASP No/No
Airport map: 
Aerial View: 

Accidents and Serious Incidents at or in the vicinity of EDVK

SKYbrary Partners:

Safety knowledge contributed by: